Time;durP1;ratioP1;P1;durP2;ratioP2;P2;SDS_P1;SDS_P2;PMS_P1;PMS_P2;Temp;Humidity;BMP_temperature;BMP_pressure;BME280_temperature;BME280_humidity;BME280_pressure;Samples;Min_cycle;Max_cycle;Signal;HPM_P1;HPM_P2
2021/08/15 00:01:56;;;;;;;;;0.00;0.00;;;;;28.39;38.50;100951.06;5076909;27;45580;-63
2021/08/15 00:04:21;;;;;;;;;0.00;0.00;;;;;28.37;38.32;100939.31;5077008;28;45828;-63
2021/08/15 00:06:47;;;;;;;;;0.00;0.00;;;;;28.39;38.17;100945.59;5058847;28;45474;-63
2021/08/15 00:09:13;;;;;;;;;0.00;0.00;;;;;28.38;38.50;100938.34;5076514;28;45532;-63
2021/08/15 00:11:45;;;;;;;;;0.00;0.00;;;;;28.36;38.44;100934.81;5054871;28;45488;-63
2021/08/15 00:14:10;;;;;;;;;0.00;0.00;;;;;28.37;38.25;100934.72;5056171;28;45383;-63
2021/08/15 00:16:37;;;;;;;;;0.00;0.00;;;;;28.36;38.30;100932.97;5056628;28;45411;-63
2021/08/15 00:19:07;;;;;;;;;0.00;0.00;;;;;28.36;38.66;100930.25;5056257;28;45711;-63
2021/08/15 00:21:33;;;;;;;;;0.00;0.00;;;;;28.35;38.20;100933.94;5056609;28;45453;-64
2021/08/15 00:23:59;;;;;;;;;0.00;0.00;;;;;28.33;38.51;100928.53;5056381;28;45436;-63
2021/08/15 00:26:24;;;;;;;;;0.00;0.00;;;;;28.34;38.57;100937.66;5055160;28;45558;-63
2021/08/15 00:28:50;;;;;;;;;0.00;0.00;;;;;28.31;38.74;100922.28;5056024;28;45411;-63
2021/08/15 00:31:15;;;;;;;;;0.00;0.00;;;;;28.31;38.80;100919.53;5056339;28;45692;-63
2021/08/15 00:33:41;;;;;;;;;0.00;0.00;;;;;28.29;38.28;100912.41;5055855;28;45802;-63
2021/08/15 00:36:07;;;;;;;;;0.00;0.00;;;;;28.30;38.82;100919.66;5054869;28;45374;-63
2021/08/15 00:38:39;;;;;;;;;0.00;0.00;;;;;28.29;39.00;100916.00;5055802;28;45496;-63
2021/08/15 00:41:05;;;;;;;;;0.00;0.00;;;;;28.28;38.76;100918.84;5055818;28;45563;-63
2021/08/15 00:43:32;;;;;;;;;0.00;0.00;;;;;28.30;38.82;100925.13;5056080;28;45519;-63
2021/08/15 00:45:58;;;;;;;;;0.00;0.00;;;;;28.29;38.98;100923.34;5055888;28;45498;-64
2021/08/15 00:48:24;;;;;;;;;0.00;0.00;;;;;28.28;38.64;100918.84;5054470;28;45936;-64
2021/08/15 00:50:49;;;;;;;;;0.00;0.00;;;;;28.28;38.42;100921.59;5054534;28;45383;-64
2021/08/15 00:53:15;;;;;;;;;0.00;0.00;;;;;28.27;38.67;100919.81;5054283;28;45558;-64
2021/08/15 00:55:41;;;;;;;;;0.00;0.00;;;;;28.25;38.99;100921.75;5054760;28;45567;-64
2021/08/15 00:58:08;;;;;;;;;0.00;0.00;;;;;28.25;39.07;100916.28;5055509;28;46127;-65
2021/08/15 01:00:35;;;;;;;;;0.00;0.00;;;;;28.24;39.07;100912.66;5055954;28;45457;-66
2021/08/15 01:03:00;;;;;;;;;0.00;0.00;;;;;28.25;39.16;100917.16;5054408;28;45468;-66
2021/08/15 01:05:26;;;;;;;;;0.00;0.00;;;;;28.25;38.31;100914.41;5055685;28;45442;-65
2021/08/15 01:07:53;;;;;;;;;0.00;0.00;;;;;28.25;38.34;100916.28;5055334;28;46205;-65
2021/08/15 01:10:18;;;;;;;;;0.00;0.00;;;;;28.23;38.69;100907.28;5059484;28;45087;-65
2021/08/15 01:12:45;;;;;;;;;0.00;0.00;;;;;28.25;39.25;100910.81;5076431;28;45663;-66
2021/08/15 01:15:11;;;;;;;;;0.00;0.00;;;;;28.24;38.86;100909.06;5076105;28;45419;-65
2021/08/15 01:17:37;;;;;;;;;0.00;0.00;;;;;28.22;38.92;100905.50;5057286;28;47073;-65
2021/08/15 01:20:04;;;;;;;;;0.00;0.00;;;;;28.22;38.81;100894.56;5057345;28;45432;-65
2021/08/15 01:22:37;;;;;;;;;0.00;0.00;;;;;28.20;39.34;100891.03;5075655;28;45489;-65
2021/08/15 01:25:05;;;;;;;;;0.00;0.00;;;;;28.21;38.96;100884.59;5075005;28;45405;-65
2021/08/15 01:27:43;;;;;;;;;0.00;0.00;;;;;28.21;39.16;100887.34;5075469;28;45965;-65
2021/08/15 01:30:11;;;;;;;;;0.00;0.00;;;;;28.20;39.26;100888.28;5075324;28;45460;-65
2021/08/15 01:32:41;;;;;;;;;0.00;0.00;;;;;28.19;39.00;100890.16;5075481;28;45365;-65
2021/08/15 01:35:07;;;;;;;;;0.00;0.00;;;;;28.18;38.69;100890.25;5075924;28;45508;-65
2021/08/15 01:37:32;;;;;;;;;0.00;0.00;;;;;28.18;39.22;100892.97;5075068;28;45772;-65
2021/08/15 01:40:02;;;;;;;;;0.00;0.00;;;;;28.17;39.23;100885.75;5075051;28;45472;-65
2021/08/15 01:42:28;;;;;;;;;0.00;0.00;;;;;28.16;39.14;100881.25;5075640;28;45464;-65
2021/08/15 01:44:54;;;;;;;;;0.00;0.00;;;;;28.16;39.00;100884.88;5075597;28;45584;-65
2021/08/15 01:47:19;;;;;;;;;0.00;0.00;;;;;28.15;38.89;100885.84;5075055;28;45409;-65
2021/08/15 01:49:45;;;;;;;;;0.00;0.00;;;;;28.16;39.00;100883.97;5075407;28;45405;-65
2021/08/15 01:52:10;;;;;;;;;0.00;0.00;;;;;28.13;39.32;100877.72;5057383;28;45477;-65
2021/08/15 01:54:36;;;;;;;;;0.00;0.00;;;;;28.14;39.43;100875.88;5075251;28;45785;-65
2021/08/15 01:57:03;;;;;;;;;0.00;0.00;;;;;28.11;39.17;100876.91;5075181;28;46169;-65
2021/08/15 01:59:28;;;;;;;;;0.00;0.00;;;;;28.11;39.29;100878.78;5074949;28;45497;-65
2021/08/15 02:01:55;;;;;;;;;0.00;0.00;;;;;28.10;38.79;100875.16;5075219;27;45461;-65
2021/08/15 02:04:22;;;;;;;;;0.00;0.00;;;;;28.09;38.90;100867.06;5075241;28;45516;-65
2021/08/15 02:06:48;;;;;;;;;0.00;0.00;;;;;28.09;38.85;100867.91;5056757;28;46069;-65
2021/08/15 02:09:15;;;;;;;;;0.00;0.00;;;;;28.07;39.29;100861.66;5074977;28;45812;-66
2021/08/15 02:11:40;;;;;;;;;0.00;0.00;;;;;28.07;38.86;100861.66;5073761;28;44746;-66
2021/08/15 02:14:06;;;;;;;;;0.00;0.00;;;;;28.07;39.07;100855.31;5075243;28;45531;-65
2021/08/15 02:16:31;;;;;;;;;0.00;0.00;;;;;28.06;39.20;100857.19;5074689;28;45546;-65
2021/08/15 02:18:56;;;;;;;;;0.00;0.00;;;;;28.05;39.46;100860.88;5075078;28;45530;-65
2021/08/15 02:21:22;;;;;;;;;0.00;0.00;;;;;28.05;39.41;100847.19;5074948;28;45531;-65
2021/08/15 02:23:47;;;;;;;;;0.00;0.00;;;;;28.04;39.33;100847.31;5075017;28;45456;-66
2021/08/15 02:26:12;;;;;;;;;0.00;0.00;;;;;28.04;38.95;100852.78;5074571;28;45389;-65
2021/08/15 02:28:39;;;;;;;;;0.00;0.00;;;;;28.03;39.63;100840.94;5074798;28;44859;-65
2021/08/15 02:31:05;;;;;;;;;0.67;0.67;;;;;28.01;39.58;100840.13;5074314;28;45521;-65
2021/08/15 02:33:30;;;;;;;;;1.00;1.00;;;;;28.01;39.60;100840.13;5074881;28;45409;-66
2021/08/15 02:35:56;;;;;;;;;0.00;0.00;;;;;28.00;39.16;100832.94;5075082;28;45393;-65
2021/08/15 02:38:22;;;;;;;;;0.00;0.00;;;;;28.02;39.35;100843.78;5078152;28;45353;-65
2021/08/15 02:40:50;;;;;;;;;0.00;0.00;;;;;28.01;38.94;100834.66;5078254;28;45401;-66
2021/08/15 02:43:15;;;;;;;;;0.00;0.00;;;;;27.99;39.12;100831.16;5078499;28;45498;-66
2021/08/15 02:45:40;;;;;;;;;0.00;0.00;;;;;27.97;38.97;100822.16;5077774;28;46086;-65
2021/08/15 02:48:06;;;;;;;;;0.00;0.00;;;;;27.98;39.67;100817.59;5077818;28;45664;-65
2021/08/15 02:50:31;;;;;;;;;0.67;0.67;;;;;27.97;39.10;100824.88;5078335;28;45537;-65
2021/08/15 02:52:57;;;;;;;;;0.00;0.00;;;;;27.97;39.58;100819.41;5078302;28;45488;-65
2021/08/15 02:55:22;;;;;;;;;0.00;0.00;;;;;27.96;39.35;100823.13;5077654;28;46205;-65
2021/08/15 02:57:48;;;;;;;;;1.67;0.33;;;;;27.96;39.11;100812.19;5077929;28;45480;-66
2021/08/15 03:00:13;;;;;;;;;0.00;0.00;;;;;27.95;39.10;100815.88;5077961;28;45453;-65
2021/08/15 03:02:40;;;;;;;;;0.33;0.33;;;;;27.95;39.86;100815.88;5078292;27;44801;-66
2021/08/15 03:05:09;;;;;;;;;0.00;0.00;;;;;27.92;39.67;100810.63;5077875;28;45599;-66
2021/08/15 03:07:34;;;;;;;;;0.00;0.00;;;;;27.92;39.51;100816.09;5077872;28;45729;-65
2021/08/15 03:10:00;;;;;;;;;0.00;0.00;;;;;27.92;39.67;100807.88;5077077;28;45412;-65
2021/08/15 03:12:25;;;;;;;;;0.00;0.00;;;;;27.91;39.25;100804.28;5077681;28;45387;-66
2021/08/15 03:14:50;;;;;;;;;2.67;2.00;;;;;27.91;39.43;100803.38;5077492;28;45431;-66
2021/08/15 03:17:17;;;;;;;;;0.00;0.00;;;;;27.90;39.92;100797.03;5077512;28;45476;-65
2021/08/15 03:19:43;;;;;;;;;0.00;0.00;;;;;27.89;39.97;100799.84;5059394;28;45402;-65
2021/08/15 03:22:08;;;;;;;;;0.33;0.33;;;;;27.89;39.91;100799.84;5077937;28;45381;-65
2021/08/15 03:24:35;;;;;;;;;0.67;0.67;;;;;27.88;39.28;100795.38;5077122;28;46390;-66
2021/08/15 03:27:01;;;;;;;;;0.00;0.00;;;;;27.87;40.06;100799.94;5077537;28;45498;-66
2021/08/15 03:29:27;;;;;;;;;0.00;0.00;;;;;27.86;39.65;100800.88;5077547;28;45528;-65
2021/08/15 03:31:53;;;;;;;;;1.00;0.00;;;;;27.87;39.51;100804.50;5077611;28;45405;-66
2021/08/15 03:34:19;;;;;;;;;1.00;1.00;;;;;27.85;39.73;100800.97;5077148;28;45432;-65
2021/08/15 03:36:46;;;;;;;;;0.00;0.00;;;;;27.85;39.79;100803.69;5077402;28;45896;-65
2021/08/15 03:39:12;;;;;;;;;0.00;0.00;;;;;27.83;39.86;100800.16;5077397;28;45563;-65
2021/08/15 03:41:37;;;;;;;;;0.33;0.33;;;;;27.82;39.48;100795.69;5059030;28;45500;-66
2021/08/15 03:44:03;;;;;;;;;0.00;0.00;;;;;27.81;39.38;100797.50;5077111;28;45412;-65
2021/08/15 03:46:28;;;;;;;;;0.33;0.33;;;;;27.81;39.77;100799.38;5076769;28;45393;-65
2021/08/15 03:48:53;;;;;;;;;1.00;1.00;;;;;27.80;39.53;100794.88;5076631;28;45531;-65
2021/08/15 03:51:19;;;;;;;;;1.00;1.00;;;;;27.78;39.60;100788.63;5077215;28;45571;-65
2021/08/15 03:53:44;;;;;;;;;1.33;1.33;;;;;27.79;40.09;100793.09;5077102;28;45933;-65
2021/08/15 03:56:09;;;;;;;;;0.67;0.67;;;;;27.79;39.62;100793.09;5076804;28;45456;-65
2021/08/15 03:58:35;;;;;;;;;0.33;0.33;;;;;27.79;39.80;100798.56;5077137;28;45369;-65
2021/08/15 04:01:01;;;;;;;;;0.00;0.00;;;;;27.78;40.11;100794.97;5077254;28;45497;-65
2021/08/15 04:03:26;;;;;;;;;1.00;1.00;;;;;27.77;40.15;100793.19;5076735;27;46002;-65
2021/08/15 04:05:55;;;;;;;;;1.00;1.00;;;;;27.77;40.20;100792.31;5076957;28;45453;-65
2021/08/15 04:08:21;;;;;;;;;0.33;0.33;;;;;27.76;40.16;100787.84;5076986;28;45323;-65
2021/08/15 04:10:46;;;;;;;;;1.00;1.00;;;;;27.78;39.89;100791.38;5075631;28;45538;-66
2021/08/15 04:13:11;;;;;;;;;2.00;2.00;;;;;27.74;39.65;100780.59;5076550;28;45444;-65
2021/08/15 04:15:37;;;;;;;;;0.00;0.00;;;;;27.76;39.59;100790.56;5076723;28;45452;-66
2021/08/15 04:18:02;;;;;;;;;1.33;1.33;;;;;27.76;39.75;100782.38;5076650;28;45425;-65
2021/08/15 04:20:28;;;;;;;;;1.33;0.00;;;;;27.75;39.61;100778.72;5076847;28;45369;-65
2021/08/15 04:22:53;;;;;;;;;0.00;0.00;;;;;27.74;39.70;100776.97;5076448;28;45581;-65
2021/08/15 04:25:18;;;;;;;;;0.00;0.00;;;;;27.71;39.84;100758.94;5058171;28;45523;-65
2021/08/15 04:27:44;;;;;;;;;0.00;0.00;;;;;27.72;39.75;100760.66;5076690;28;45756;-65
2021/08/15 04:30:10;;;;;;;;;0.67;0.00;;;;;27.73;39.96;100773.38;5076729;28;45752;-65
2021/08/15 04:32:37;;;;;;;;;0.67;0.67;;;;;27.72;39.85;100770.72;5057421;28;46516;-65
2021/08/15 04:35:05;;;;;;;;;0.33;0.33;;;;;27.73;40.39;100780.66;5076204;28;45460;-65
2021/08/15 04:37:30;;;;;;;;;0.00;0.00;;;;;27.71;40.40;100775.31;5076268;28;45459;-65
2021/08/15 04:39:56;;;;;;;;;0.33;0.33;;;;;27.71;40.19;100769.84;5076131;28;45524;-66
2021/08/15 04:42:22;;;;;;;;;1.00;1.00;;;;;27.69;40.00;100771.78;5058156;28;47619;-66
2021/08/15 04:44:49;;;;;;;;;0.67;0.67;;;;;27.70;39.91;100768.06;5076352;28;45448;-65
2021/08/15 04:47:14;;;;;;;;;0.00;0.00;;;;;27.69;40.25;100762.69;5076529;28;46003;-65
2021/08/15 04:49:39;;;;;;;;;0.00;0.00;;;;;27.68;40.09;100770.00;5076339;28;45396;-65
2021/08/15 04:52:05;;;;;;;;;1.00;0.00;;;;;27.69;39.87;100777.25;5076410;28;45458;-65
2021/08/15 04:54:31;;;;;;;;;0.67;0.67;;;;;27.68;40.55;100772.75;5076151;28;45402;-66
2021/08/15 04:56:58;;;;;;;;;0.33;0.33;;;;;27.68;40.07;100767.28;5076362;28;45513;-65
2021/08/15 04:59:24;;;;;;;;;0.33;0.33;;;;;27.68;40.44;100764.56;5075579;28;45530;-65
2021/08/15 05:01:50;;;;;;;;;0.00;0.00;;;;;27.66;40.26;100754.69;5075323;28;47168;-65
2021/08/15 05:04:15;;;;;;;;;0.00;0.00;;;;;27.68;40.43;100763.69;5075664;28;45401;-65
2021/08/15 05:06:41;;;;;;;;;0.67;0.67;;;;;27.66;40.46;100758.28;5075983;28;45510;-65
2021/08/15 05:09:13;;;;;;;;;0.67;0.67;;;;;27.63;39.92;100763.94;5076280;28;45476;-65
2021/08/15 05:11:39;;;;;;;;;0.00;0.00;;;;;27.63;40.46;100761.22;5074221;28;46195;-65
2021/08/15 05:14:06;;;;;;;;;0.00;0.00;;;;;27.64;40.46;100771.16;5075716;28;45347;-66
2021/08/15 05:16:31;;;;;;;;;0.00;0.00;;;;;27.64;40.52;100768.44;5076356;28;45501;-65
2021/08/15 05:18:57;;;;;;;;;1.00;1.00;;;;;27.62;40.60;100762.16;5075866;28;45488;-66
2021/08/15 05:21:22;;;;;;;;;0.00;0.00;;;;;27.61;40.52;100765.88;5075727;28;46307;-64
2021/08/15 05:23:47;;;;;;;;;0.00;0.00;;;;;27.61;40.49;100754.97;5075726;28;45440;-65
2021/08/15 05:26:13;;;;;;;;;0.67;0.67;;;;;27.62;39.92;100756.69;5075798;28;45514;-65
2021/08/15 05:28:38;;;;;;;;;0.00;0.00;;;;;27.61;39.93;100757.69;5075876;28;45439;-65
2021/08/15 05:31:05;;;;;;;;;0.00;0.00;;;;;27.61;40.01;100757.69;5075382;28;45550;-65
2021/08/15 05:33:30;;;;;;;;;0.33;0.33;;;;;27.61;40.49;100765.88;5075667;28;45585;-65
2021/08/15 05:35:55;;;;;;;;;0.00;0.00;;;;;27.58;40.14;100760.56;5075577;28;45954;-65
2021/08/15 05:38:21;;;;;;;;;1.00;0.67;;;;;27.61;40.31;100762.25;5075607;28;45488;-65
2021/08/15 05:40:46;;;;;;;;;0.67;0.67;;;;;27.60;40.58;100758.63;5075394;28;45608;-65
2021/08/15 05:43:13;;;;;;;;;0.00;0.00;;;;;27.62;40.39;100764.91;5075339;28;45500;-65
2021/08/15 05:45:38;;;;;;;;;2.33;0.67;;;;;27.61;40.58;100765.88;5075406;28;45412;-65
2021/08/15 05:48:05;;;;;;;;;0.00;0.00;;;;;27.60;40.09;100765.97;5057100;28;45462;-65
2021/08/15 05:50:37;;;;;;;;;0.00;0.00;;;;;27.62;40.67;100759.44;5057243;28;45406;-65
2021/08/15 05:53:02;;;;;;;;;0.67;0.67;;;;;27.62;40.07;100750.38;5075216;28;45517;-65
2021/08/15 05:55:28;;;;;;;;;1.00;1.00;;;;;27.62;40.76;100756.69;5075538;28;45374;-65
2021/08/15 05:57:53;;;;;;;;;1.00;1.00;;;;;27.64;40.04;100757.50;5075422;28;45349;-65
2021/08/15 06:00:19;;;;;;;;;0.00;0.00;;;;;27.63;40.37;100755.75;5074486;28;45923;-65
2021/08/15 06:02:45;;;;;;;;;0.67;0.67;;;;;27.65;39.88;100755.63;5074865;28;45350;-65
2021/08/15 06:05:12;;;;;;;;;0.00;0.00;;;;;27.65;40.17;100753.81;5075193;28;45481;-65
2021/08/15 06:07:38;;;;;;;;;0.67;0.67;;;;;27.67;40.09;100761.91;5056916;28;45552;-65
2021/08/15 06:10:06;;;;;;;;;0.00;0.00;;;;;27.67;40.55;100760.06;5074831;28;45466;-65
2021/08/15 06:12:32;;;;;;;;;0.00;0.00;;;;;27.70;40.37;100762.59;5073194;28;45684;-65
2021/08/15 06:14:57;;;;;;;;;0.00;0.00;;;;;27.73;40.53;100758.81;5075091;28;45493;-65
2021/08/15 06:17:22;;;;;;;;;1.33;1.33;;;;;27.74;40.06;100761.47;5057029;28;45484;-65
2021/08/15 06:19:48;;;;;;;;;0.67;0.67;;;;;27.76;39.96;100765.97;5056483;28;47424;-65
2021/08/15 06:22:13;;;;;;;;;0.00;0.00;;;;;27.78;40.04;100766.75;5074862;28;44689;-65
2021/08/15 06:24:39;;;;;;;;;0.00;0.00;;;;;27.81;40.52;100766.56;5056902;28;45401;-65
2021/08/15 06:27:04;;;;;;;;;0.00;0.00;;;;;27.81;40.66;100772.03;5056596;28;45718;-65
2021/08/15 06:29:30;;;;;;;;;0.00;0.00;;;;;27.82;40.42;100774.69;5074516;28;46039;-65
2021/08/15 06:31:56;;;;;;;;;0.00;0.00;;;;;27.83;40.51;100762.78;5074919;28;45465;-65
2021/08/15 06:34:22;;;;;;;;;0.00;0.00;;;;;27.86;40.27;100769.94;5074523;28;45504;-65
2021/08/15 06:36:47;;;;;;;;;0.00;0.00;;;;;27.88;39.85;100770.75;5074867;28;45542;-65
2021/08/15 06:39:13;;;;;;;;;0.00;0.00;;;;;27.90;40.43;100768.81;5056728;28;46307;-65
2021/08/15 06:41:39;;;;;;;;;0.00;0.00;;;;;27.92;40.03;100766.88;5074659;28;45539;-65
2021/08/15 06:44:04;;;;;;;;;0.00;0.00;;;;;27.93;40.33;100763.16;5074799;28;45500;-65
2021/08/15 06:46:30;;;;;;;;;0.00;0.00;;;;;27.93;40.45;100752.22;5056673;28;45492;-65
2021/08/15 06:48:55;;;;;;;;;0.00;0.00;;;;;27.96;40.07;100757.53;5056237;28;48362;-65
2021/08/15 06:51:21;;;;;;;;;0.00;0.00;;;;;27.96;40.09;100763.00;5074540;28;45374;-65
2021/08/15 06:53:46;;;;;;;;;0.00;0.00;;;;;28.00;40.00;100764.59;5074655;28;46009;-65
2021/08/15 06:56:12;;;;;;;;;0.00;0.00;;;;;28.01;40.08;100759.97;5074815;28;45518;-65
2021/08/15 06:58:37;;;;;;;;;0.00;0.00;;;;;28.04;39.75;100757.97;5074408;28;45431;-65
2021/08/15 07:01:04;;;;;;;;;0.00;0.00;;;;;28.01;39.70;100760.84;5074525;28;45414;-65
2021/08/15 07:03:29;;;;;;;;;0.00;0.00;;;;;28.06;40.22;100764.22;5074546;28;45460;-65
2021/08/15 07:05:55;;;;;;;;;0.00;0.00;;;;;28.08;40.29;100761.41;5074642;28;45423;-65
2021/08/15 07:08:21;;;;;;;;;0.00;0.00;;;;;28.12;39.58;100769.31;5074057;28;45473;-65
2021/08/15 07:10:47;;;;;;;;;0.00;0.00;;;;;28.15;40.15;100772.84;5073018;28;45401;-65
2021/08/15 07:13:13;;;;;;;;;0.00;0.00;;;;;28.16;40.20;100774.59;5074363;28;45557;-65
2021/08/15 07:15:39;;;;;;;;;0.00;0.00;;;;;28.18;39.98;100775.38;5074478;28;45866;-65
2021/08/15 07:18:04;;;;;;;;;0.00;0.00;;;;;28.21;39.57;100775.22;5055789;28;46296;-65
2021/08/15 07:20:30;;;;;;;;;0.00;0.00;;;;;28.23;39.55;100776.00;5074097;28;45481;-65
2021/08/15 07:22:57;;;;;;;;;0.00;0.00;;;;;28.23;39.74;100770.53;5074379;28;45472;-65
2021/08/15 07:25:24;;;;;;;;;0.00;0.00;;;;;28.26;40.08;100773.09;5077821;28;45363;-65
2021/08/15 07:27:50;;;;;;;;;0.00;0.00;;;;;28.28;39.97;100768.44;5077322;28;46569;-65
2021/08/15 07:30:16;;;;;;;;;0.00;0.00;;;;;28.31;39.89;100774.56;5077612;28;45347;-66
2021/08/15 07:33:08;;;;;;;;;0.00;0.00;;;;;28.32;39.37;100764.53;5059626;28;45486;-65
2021/08/15 07:35:35;;;;;;;;;0.00;0.00;;;;;28.33;39.62;100761.69;5073773;28;45613;-65
2021/08/15 07:38:01;;;;;;;;;0.00;0.00;;;;;28.35;39.45;100758.88;5077291;28;46316;-65
2021/08/15 07:40:28;;;;;;;;;0.00;0.00;;;;;28.38;39.54;100764.16;5077279;28;45540;-65
2021/08/15 07:42:54;;;;;;;;;0.00;0.00;;;;;28.39;39.20;100754.97;5077399;28;45456;-65
2021/08/15 07:45:22;;;;;;;;;0.00;0.00;;;;;28.41;39.30;100755.75;5077486;28;45481;-65
2021/08/15 07:47:48;;;;;;;;;0.00;0.00;;;;;28.43;39.25;100758.41;5077280;28;45434;-65
2021/08/15 07:50:14;;;;;;;;;0.00;0.00;;;;;28.45;39.55;100759.19;5077133;28;45345;-66
2021/08/15 07:52:40;;;;;;;;;0.00;0.00;;;;;28.47;39.40;100760.84;5077141;28;45500;-65
2021/08/15 07:55:06;;;;;;;;;0.00;0.00;;;;;28.49;39.26;100756.16;5077471;28;44834;-65
2021/08/15 07:57:31;;;;;;;;;0.00;0.00;;;;;28.51;39.27;100758.84;5077255;28;45529;-65
2021/08/15 07:59:58;;;;;;;;;0.00;0.00;;;;;28.53;39.72;100756.91;5076876;28;45449;-66
2021/08/15 08:02:24;;;;;;;;;0.00;0.00;;;;;28.55;39.62;100756.81;5077427;27;45497;-65
2021/08/15 08:04:50;;;;;;;;;0.00;0.00;;;;;28.57;39.77;100749.41;5077362;28;45649;-66
2021/08/15 08:07:19;;;;;;;;;0.00;0.00;;;;;28.59;39.08;100761.13;5076783;28;45467;-65
2021/08/15 08:09:45;;;;;;;;;0.00;0.00;;;;;28.61;39.48;100753.72;5076831;28;45419;-65
2021/08/15 08:12:10;;;;;;;;;0.00;0.00;;;;;28.62;39.50;100753.63;5054754;28;45480;-65
2021/08/15 08:14:36;;;;;;;;;0.00;0.00;;;;;28.63;39.12;100752.63;5056689;28;45429;-65
2021/08/15 08:17:01;;;;;;;;;0.00;0.00;;;;;28.65;38.96;100749.81;5056919;28;46849;-65
2021/08/15 08:19:27;;;;;;;;;0.00;0.00;;;;;28.66;39.51;100740.59;5056740;28;45429;-65
2021/08/15 08:21:53;;;;;;;;;0.00;0.00;;;;;28.68;39.08;100738.66;5055302;28;45645;-65
2021/08/15 08:24:18;;;;;;;;;0.00;0.00;;;;;28.70;39.36;100742.19;5056963;28;45501;-65
2021/08/15 08:26:44;;;;;;;;;0.00;0.00;;;;;28.71;39.41;100733.00;5056399;28;45549;-65
2021/08/15 08:29:09;;;;;;;;;0.00;0.00;;;;;28.71;39.15;100738.47;5056433;28;45648;-65
2021/08/15 08:31:34;;;;;;;;;0.00;0.00;;;;;28.72;39.16;100740.22;5056519;28;45500;-65
2021/08/15 08:34:01;;;;;;;;;0.00;0.00;;;;;28.75;38.98;100740.06;5054644;28;45439;-65
2021/08/15 08:36:26;;;;;;;;;0.00;0.00;;;;;28.77;38.92;100742.69;5056533;28;46257;-65
2021/08/15 08:38:51;;;;;;;;;0.00;0.00;;;;;28.78;39.17;100742.59;5056510;28;45526;-65
2021/08/15 08:41:17;;;;;;;;;0.00;0.00;;;;;28.80;39.03;100743.38;5056514;28;45437;-65
2021/08/15 08:43:46;;;;;;;;;0.00;0.00;;;;;28.82;38.60;100729.59;5056647;28;45385;-65
2021/08/15 08:46:12;;;;;;;;;0.00;0.00;;;;;28.84;39.08;100730.38;5054788;28;47027;-65
2021/08/15 08:48:39;;;;;;;;;0.00;0.00;;;;;28.84;38.64;100733.97;5056000;28;45735;-65
2021/08/15 08:51:04;;;;;;;;;0.00;0.00;;;;;28.85;38.81;100727.56;5056372;28;45420;-65
2021/08/15 08:53:33;;;;;;;;;0.00;0.00;;;;;28.86;39.07;100729.28;5056138;28;45496;-66
2021/08/15 08:55:59;;;;;;;;;0.00;0.00;;;;;28.88;38.95;100724.63;5056040;28;45345;-65
2021/08/15 08:58:24;;;;;;;;;0.00;0.00;;;;;28.89;39.20;100726.38;5054715;28;45297;-65
2021/08/15 09:00:50;;;;;;;;;0.00;0.00;;;;;28.90;38.88;100722.69;5056091;28;45435;-65
2021/08/15 09:03:16;;;;;;;;;0.00;0.00;;;;;28.92;38.85;100723.47;5054787;28;44814;-65
2021/08/15 09:05:51;;;;;;;;;0.00;0.00;;;;;28.92;38.71;100722.56;5056056;28;45469;-65
2021/08/15 09:08:28;;;;;;;;;0.00;0.00;;;;;28.96;38.95;100715.03;5054299;28;45435;-65
2021/08/15 09:11:08;;;;;;;;;0.00;0.00;;;;;28.95;38.71;100714.16;5056730;28;45455;-65
2021/08/15 09:13:58;;;;;;;;;0.00;0.00;;;;;28.97;39.03;100704.00;5076505;28;45367;-65
2021/08/15 09:16:23;;;;;;;;;0.00;0.00;;;;;28.99;38.92;100699.31;5075957;28;46573;-65
2021/08/15 09:18:48;;;;;;;;;0.00;0.00;;;;;29.00;38.83;100697.44;5075950;28;45439;-65
2021/08/15 09:21:27;;;;;;;;;0.00;0.00;;;;;29.01;38.79;100696.47;5076174;28;45456;-66
2021/08/15 09:24:00;;;;;;;;;0.00;0.00;;;;;29.03;38.73;100698.13;5076189;28;45326;-66
2021/08/15 09:26:26;;;;;;;;;0.00;0.00;;;;;29.06;38.60;100699.78;5075582;28;45590;-65
2021/08/15 09:28:52;;;;;;;;;0.00;0.00;;;;;29.05;38.59;100698.03;5075758;28;45390;-65
2021/08/15 09:31:28;;;;;;;;;0.00;0.00;;;;;29.09;38.79;100694.13;5076029;28;45486;-65
2021/08/15 09:33:56;;;;;;;;;0.00;0.00;;;;;29.09;38.92;100691.38;5075971;28;45441;-65
2021/08/15 09:36:41;;;;;;;;;0.00;0.00;;;;;29.12;38.63;100689.34;5075990;28;46278;-65
2021/08/15 09:39:07;;;;;;;;;0.00;0.00;;;;;29.15;39.02;100699.25;5075865;28;45470;-65
2021/08/15 09:41:38;;;;;;;;;0.00;0.00;;;;;29.15;38.62;100688.28;5076036;28;45515;-65
2021/08/15 09:44:16;;;;;;;;;0.00;0.00;;;;;29.17;38.54;100686.31;5075939;28;45497;-65
2021/08/15 09:47:03;;;;;;;;;0.00;0.00;;;;;29.19;38.57;100684.38;5056255;28;46130;-65
2021/08/15 09:49:46;;;;;;;;;0.00;0.00;;;;;29.20;38.58;100685.25;5075347;28;45443;-65
2021/08/15 09:52:14;;;;;;;;;0.00;0.00;;;;;29.22;38.68;100677.81;5075715;28;45823;-65
2021/08/15 09:54:40;;;;;;;;;0.00;0.00;;;;;29.22;38.64;100678.66;5075556;28;45526;-65
2021/08/15 09:57:11;;;;;;;;;0.00;0.00;;;;;29.23;38.71;100677.72;5056909;28;46954;-65
2021/08/15 09:59:39;;;;;;;;;0.00;0.00;;;;;29.25;38.82;100673.00;5075377;28;45461;-66
2021/08/15 10:02:05;;;;;;;;;0.00;0.00;;;;;29.25;38.48;100672.13;5075216;27;45573;-66
2021/08/15 10:04:31;;;;;;;;;0.00;0.00;;;;;29.27;38.63;100673.78;5075342;28;45555;-65
2021/08/15 10:06:57;;;;;;;;;0.00;0.00;;;;;29.28;38.49;100670.06;5075364;28;45527;-65
2021/08/15 10:09:24;;;;;;;;;0.00;0.00;;;;;29.30;38.73;100675.44;5075249;28;45389;-65
2021/08/15 10:11:51;;;;;;;;;0.00;0.00;;;;;29.31;38.44;100669.88;5073899;28;45496;-65
2021/08/15 10:14:16;;;;;;;;;0.00;0.00;;;;;29.33;38.50;100669.78;5057374;28;45377;-66
2021/08/15 10:17:03;;;;;;;;;0.00;0.00;;;;;29.35;38.67;100673.28;5075050;28;46146;-65
2021/08/15 10:19:49;;;;;;;;;0.00;0.00;;;;;29.36;38.63;100668.69;5075089;28;45528;-65
2021/08/15 10:22:23;;;;;;;;;0.00;0.00;;;;;29.37;38.90;100664.94;5075265;28;45461;-65
2021/08/15 10:24:54;;;;;;;;;0.00;0.00;;;;;29.38;38.73;100663.97;5075322;28;45444;-65
2021/08/15 10:27:41;;;;;;;;;0.33;0.33;;;;;29.39;38.36;100652.94;5074269;28;45409;-65
2021/08/15 10:30:12;;;;;;;;;0.00;0.00;;;;;29.41;38.79;100655.53;5074924;28;45718;-65
2021/08/15 10:32:38;;;;;;;;;0.33;0.33;;;;;29.42;38.63;100646.34;5074975;28;45484;-65
2021/08/15 10:35:04;;;;;;;;;2.00;1.33;;;;;29.42;38.68;100636.28;5075138;28;45775;-65
2021/08/15 10:37:34;;;;;;;;;0.00;0.00;;;;;29.45;38.51;100635.19;5074848;28;46229;-65
2021/08/15 10:40:03;;;;;;;;;0.00;0.00;;;;;29.46;38.59;100636.94;5075039;28;45559;-65
2021/08/15 10:42:47;;;;;;;;;0.00;0.00;;;;;29.47;38.71;100639.59;5074800;28;45986;-65
2021/08/15 10:45:18;;;;;;;;;0.00;0.00;;;;;29.49;38.32;100632.16;5075047;28;45365;-65
2021/08/15 10:48:11;;;;;;;;;0.00;0.00;;;;;29.49;38.46;100626.69;5074570;28;45511;-66
2021/08/15 10:50:48;;;;;;;;;0.00;0.00;;;;;29.51;38.34;100626.53;5074502;28;45468;-65
2021/08/15 10:53:28;;;;;;;;;0.00;0.00;;;;;29.51;38.51;100623.81;5075166;28;45390;-65
2021/08/15 10:55:54;;;;;;;;;0.00;0.00;;;;;29.52;38.43;100617.34;5075036;28;45395;-65
2021/08/15 10:58:47;;;;;;;;;0.00;0.00;;;;;29.52;38.68;100618.22;5075345;28;46290;-65
2021/08/15 11:01:16;;;;;;;;;0.00;0.00;;;;;29.54;38.39;100618.13;5078367;28;45408;-65
2021/08/15 11:03:47;;;;;;;;;0.00;0.00;;;;;29.56;38.29;100618.03;5060018;28;45413;-65
2021/08/15 11:06:31;;;;;;;;;0.33;0.00;;;;;29.56;38.62;100616.16;5078346;28;45468;-65
2021/08/15 11:08:57;;;;;;;;;0.33;0.33;;;;;29.56;38.55;100610.69;5059861;28;47300;-66
2021/08/15 11:11:25;;;;;;;;;0.67;0.67;;;;;29.56;38.93;100610.69;5076924;28;45440;-65
2021/08/15 11:14:23;;;;;;;;;0.33;0.33;;;;;29.58;38.33;100613.34;5059998;28;45433;-65
2021/08/15 11:17:10;;;;;;;;;0.00;0.00;;;;;29.59;38.46;100610.50;5078369;28;45481;-66
2021/08/15 11:19:36;;;;;;;;;0.00;0.00;;;;;29.58;38.28;100605.97;5077771;28;46084;-65
2021/08/15 11:22:08;;;;;;;;;1.00;1.00;;;;;29.60;38.52;100606.75;5077997;28;45511;-65
2021/08/15 11:24:58;;;;;;;;;0.67;0.67;;;;;29.61;38.36;100608.53;5078120;28;45396;-65
2021/08/15 11:27:30;;;;;;;;;0.00;0.00;;;;;29.61;38.70;100603.06;5059779;28;45453;-65